sensor_id;sensor_type;location;lat;lon;timestamp;pressure;altitude;pressure_sealevel;temperature;humidity
71638;BME280;59485;43.542;-5.676;2022-09-23T00:00:42;101606.38;;;16.84;77.20
71638;BME280;59485;43.542;-5.676;2022-09-23T00:03:09;101607.22;;;16.84;77.11
71638;BME280;59485;43.542;-5.676;2022-09-23T00:05:35;101606.38;;;16.77;77.61
71638;BME280;59485;43.542;-5.676;2022-09-23T00:08:02;101603.38;;;16.79;77.49
71638;BME280;59485;43.542;-5.676;2022-09-23T00:10:28;101589.09;;;16.75;77.15
71638;BME280;59485;43.542;-5.676;2022-09-23T00:12:57;101596.13;;;16.78;77.22
71638;BME280;59485;43.542;-5.676;2022-09-23T00:15:24;101598.47;;;16.74;77.38
71638;BME280;59485;43.542;-5.676;2022-09-23T00:17:51;101609.53;;;16.74;77.69
71638;BME280;59485;43.542;-5.676;2022-09-23T00:20:17;101613.38;;;16.73;77.94
71638;BME280;59485;43.542;-5.676;2022-09-23T00:22:43;101617.00;;;16.67;78.13
71638;BME280;59485;43.542;-5.676;2022-09-23T00:25:11;101622.53;;;16.67;78.19
71638;BME280;59485;43.542;-5.676;2022-09-23T00:27:38;101626.56;;;16.65;78.38
71638;BME280;59485;43.542;-5.676;2022-09-23T00:30:06;101641.69;;;16.62;78.22
71638;BME280;59485;43.542;-5.676;2022-09-23T00:32:33;101642.47;;;16.56;78.41
71638;BME280;59485;43.542;-5.676;2022-09-23T00:34:59;101649.53;;;16.59;78.59
71638;BME280;59485;43.542;-5.676;2022-09-23T00:37:24;101630.75;;;16.47;78.81
71638;BME280;59485;43.542;-5.676;2022-09-23T00:39:51;101624.34;;;16.47;78.93
71638;BME280;59485;43.542;-5.676;2022-09-23T00:42:20;101628.63;;;16.43;79.19
71638;BME280;59485;43.542;-5.676;2022-09-23T00:50:20;101609.25;;;16.43;79.31
71638;BME280;59485;43.542;-5.676;2022-09-23T00:52:50;101604.75;;;16.42;79.50
71638;BME280;59485;43.542;-5.676;2022-09-23T00:55:22;101613.06;;;16.42;79.75
71638;BME280;59485;43.542;-5.676;2022-09-23T00:57:52;101612.63;;;16.38;79.78
71638;BME280;59485;43.542;-5.676;2022-09-23T01:00:20;101617.28;;;16.38;80.04
71638;BME280;59485;43.542;-5.676;2022-09-23T01:02:46;101605.59;;;16.36;79.89
71638;BME280;59485;43.542;-5.676;2022-09-23T01:05:12;101611.94;;;16.30;79.95
71638;BME280;59485;43.542;-5.676;2022-09-23T01:07:39;101611.53;;;16.26;80.52
71638;BME280;59485;43.542;-5.676;2022-09-23T01:10:05;101618.78;;;16.27;80.13
71638;BME280;59485;43.542;-5.676;2022-09-23T01:13:04;101628.56;;;16.30;80.12
71638;BME280;59485;43.542;-5.676;2022-09-23T01:15:52;101622.41;;;16.28;80.41
71638;BME280;59485;43.542;-5.676;2022-09-23T01:18:28;101627.50;;;16.31;80.34
71638;BME280;59485;43.542;-5.676;2022-09-23T01:21:27;101613.25;;;16.27;80.41
71638;BME280;59485;43.542;-5.676;2022-09-23T01:46:36;101584.63;;;16.07;81.13
71638;BME280;59485;43.542;-5.676;2022-09-23T01:49:11;101577.59;;;16.04;81.04
71638;BME280;59485;43.542;-5.676;2022-09-23T01:51:48;101582.72;;;16.07;80.90
71638;BME280;59485;43.542;-5.676;2022-09-23T01:57:47;101582.06;;;16.05;80.84
71638;BME280;59485;43.542;-5.676;2022-09-23T02:00:05;101576.94;;;16.02;81.10
71638;BME280;59485;43.542;-5.676;2022-09-23T02:02:36;101577.19;;;16.01;81.19
71638;BME280;59485;43.542;-5.676;2022-09-23T02:05:35;101584.38;;;16.02;81.27
71638;BME280;59485;43.542;-5.676;2022-09-23T02:08:05;101581.84;;;16.00;81.15
71638;BME280;59485;43.542;-5.676;2022-09-23T02:11:09;101577.97;;;15.95;81.11
71638;BME280;59485;43.542;-5.676;2022-09-23T02:13:39;101581.19;;;15.98;81.21
71638;BME280;59485;43.542;-5.676;2022-09-23T02:16:19;101574.38;;;15.94;81.17
71638;BME280;59485;43.542;-5.676;2022-09-23T02:21:26;101584.53;;;15.87;81.18
71638;BME280;59485;43.542;-5.676;2022-09-23T02:24:00;101580.28;;;15.85;81.29
71638;BME280;59485;43.542;-5.676;2022-09-23T02:26:27;101583.28;;;15.83;81.29
71638;BME280;59485;43.542;-5.676;2022-09-23T02:31:47;101580.25;;;15.78;81.50
71638;BME280;59485;43.542;-5.676;2022-09-23T02:34:42;101577.09;;;15.81;81.66
71638;BME280;59485;43.542;-5.676;2022-09-23T02:42:17;101575.53;;;15.72;81.64
71638;BME280;59485;43.542;-5.676;2022-09-23T02:44:44;101578.75;;;15.75;81.56
71638;BME280;59485;43.542;-5.676;2022-09-23T02:47:10;101581.72;;;15.74;81.45
71638;BME280;59485;43.542;-5.676;2022-09-23T02:49:35;101582.53;;;15.68;81.41
71638;BME280;59485;43.542;-5.676;2022-09-23T02:52:02;101578.28;;;15.65;81.36
71638;BME280;59485;43.542;-5.676;2022-09-23T02:54:32;101590.16;;;15.66;81.52
71638;BME280;59485;43.542;-5.676;2022-09-23T02:57:03;101591.25;;;15.65;81.45
71638;BME280;59485;43.542;-5.676;2022-09-23T02:59:31;101585.06;;;15.63;81.47
71638;BME280;59485;43.542;-5.676;2022-09-23T03:02:12;101581.66;;;15.61;81.56
71638;BME280;59485;43.542;-5.676;2022-09-23T03:08:06;101586.50;;;15.59;81.84
71638;BME280;59485;43.542;-5.676;2022-09-23T03:10:56;101575.03;;;15.55;81.83
71638;BME280;59485;43.542;-5.676;2022-09-23T03:18:36;101562.59;;;15.45;82.38
71638;BME280;59485;43.542;-5.676;2022-09-23T03:21:14;101572.84;;;15.51;82.05
71638;BME280;59485;43.542;-5.676;2022-09-23T03:23:43;101583.88;;;15.51;82.56
71638;BME280;59485;43.542;-5.676;2022-09-23T03:26:15;101575.78;;;15.49;82.66
71638;BME280;59485;43.542;-5.676;2022-09-23T03:28:44;101579.84;;;15.47;82.75
71638;BME280;59485;43.542;-5.676;2022-09-23T03:31:13;101578.56;;;15.49;82.58
71638;BME280;59485;43.542;-5.676;2022-09-23T03:33:44;101580.25;;;15.50;82.93
71638;BME280;59485;43.542;-5.676;2022-09-23T03:36:13;101581.97;;;15.51;82.52
71638;BME280;59485;43.542;-5.676;2022-09-23T03:39:14;101572.84;;;15.51;82.74
71638;BME280;59485;43.542;-5.676;2022-09-23T03:41:47;101576.66;;;15.50;82.86
71638;BME280;59485;43.542;-5.676;2022-09-23T03:44:16;101586.28;;;15.54;82.71
71638;BME280;59485;43.542;-5.676;2022-09-23T03:46:42;101574.75;;;15.50;82.71
71638;BME280;59485;43.542;-5.676;2022-09-23T03:49:35;101563.50;;;15.52;82.99
71638;BME280;59485;43.542;-5.676;2022-09-23T03:52:01;101570.06;;;15.51;82.91
71638;BME280;59485;43.542;-5.676;2022-09-23T03:54:28;101567.78;;;15.54;82.91
71638;BME280;59485;43.542;-5.676;2022-09-23T03:56:55;101569.69;;;15.54;83.08
71638;BME280;59485;43.542;-5.676;2022-09-23T03:59:23;101567.97;;;15.53;83.37
71638;BME280;59485;43.542;-5.676;2022-09-23T04:01:49;101571.41;;;15.55;83.21
71638;BME280;59485;43.542;-5.676;2022-09-23T04:04:15;101568.66;;;15.55;83.26
71638;BME280;59485;43.542;-5.676;2022-09-23T04:06:40;101571.78;;;15.52;83.10
71638;BME280;59485;43.542;-5.676;2022-09-23T04:09:06;101586.66;;;15.51;83.35
71638;BME280;59485;43.542;-5.676;2022-09-23T04:11:32;101587.28;;;15.46;83.76
71638;BME280;59485;43.542;-5.676;2022-09-23T04:13:58;101584.50;;;15.46;83.89
71638;BME280;59485;43.542;-5.676;2022-09-23T04:16:24;101588.13;;;15.47;83.88
71638;BME280;59485;43.542;-5.676;2022-09-23T04:18:50;101579.56;;;15.42;83.97
71638;BME280;59485;43.542;-5.676;2022-09-23T04:21:16;101590.81;;;15.40;83.92
71638;BME280;59485;43.542;-5.676;2022-09-23T04:23:41;101583.53;;;15.32;84.28
71638;BME280;59485;43.542;-5.676;2022-09-23T04:26:07;101586.56;;;15.37;84.30
71638;BME280;59485;43.542;-5.676;2022-09-23T04:28:33;101587.00;;;15.41;84.23
71638;BME280;59485;43.542;-5.676;2022-09-23T04:31:01;101568.94;;;15.38;84.05
71638;BME280;59485;43.542;-5.676;2022-09-23T04:33:27;101567.94;;;15.46;84.01
71638;BME280;59485;43.542;-5.676;2022-09-23T04:35:54;101562.41;;;15.46;83.86
71638;BME280;59485;43.542;-5.676;2022-09-23T04:38:19;101560.50;;;15.47;83.33
71638;BME280;59485;43.542;-5.676;2022-09-23T04:40:46;101567.50;;;15.49;83.44
71638;BME280;59485;43.542;-5.676;2022-09-23T04:43:12;101566.22;;;15.45;83.52
71638;BME280;59485;43.542;-5.676;2022-09-23T04:45:40;101554.97;;;15.47;83.76
71638;BME280;59485;43.542;-5.676;2022-09-23T04:48:05;101550.88;;;15.43;83.65
71638;BME280;59485;43.542;-5.676;2022-09-23T04:50:32;101569.63;;;15.47;83.59
71638;BME280;59485;43.542;-5.676;2022-09-23T04:52:58;101573.25;;;15.48;83.57
71638;BME280;59485;43.542;-5.676;2022-09-23T04:55:23;101567.47;;;15.43;83.53
71638;BME280;59485;43.542;-5.676;2022-09-23T04:57:49;101579.59;;;15.48;83.32
71638;BME280;59485;43.542;-5.676;2022-09-23T05:00:15;101568.34;;;15.50;83.34
71638;BME280;59485;43.542;-5.676;2022-09-23T05:02:44;101544.97;;;15.46;83.28
71638;BME280;59485;43.542;-5.676;2022-09-23T05:05:11;101543.91;;;15.47;83.29
71638;BME280;59485;43.542;-5.676;2022-09-23T05:07:37;101564.59;;;15.57;83.20
71638;BME280;59485;43.542;-5.676;2022-09-23T05:10:04;101557.31;;;15.50;83.17
71638;BME280;59485;43.542;-5.676;2022-09-23T05:12:29;101562.94;;;15.56;83.12
71638;BME280;59485;43.542;-5.676;2022-09-23T05:14:55;101569.31;;;15.57;83.39
71638;BME280;59485;43.542;-5.676;2022-09-23T05:17:20;101574.34;;;15.53;83.25
71638;BME280;59485;43.542;-5.676;2022-09-23T05:19:46;101575.78;;;15.49;83.50
71638;BME280;59485;43.542;-5.676;2022-09-23T05:22:11;101584.94;;;15.50;83.41
71638;BME280;59485;43.542;-5.676;2022-09-23T05:24:38;101568.53;;;15.42;83.71
71638;BME280;59485;43.542;-5.676;2022-09-23T05:27:03;101570.06;;;15.51;83.76
71638;BME280;59485;43.542;-5.676;2022-09-23T05:29:31;101583.13;;;15.57;83.59
71638;BME280;59485;43.542;-5.676;2022-09-23T05:31:56;101579.50;;;15.56;83.30
71638;BME280;59485;43.542;-5.676;2022-09-23T05:34:22;101580.78;;;15.60;83.42
71638;BME280;59485;43.542;-5.676;2022-09-23T05:36:48;101576.50;;;15.58;83.40
71638;BME280;59485;43.542;-5.676;2022-09-23T05:39:14;101587.56;;;15.58;83.27
71638;BME280;59485;43.542;-5.676;2022-09-23T05:41:39;101581.41;;;15.56;83.34
71638;BME280;59485;43.542;-5.676;2022-09-23T05:44:07;101576.09;;;15.54;83.26
71638;BME280;59485;43.542;-5.676;2022-09-23T05:46:33;101583.75;;;15.59;83.16
71638;BME280;59485;43.542;-5.676;2022-09-23T05:48:59;101602.25;;;15.58;83.16
71638;BME280;59485;43.542;-5.676;2022-09-23T05:51:26;101611.53;;;15.51;83.20
71638;BME280;59485;43.542;-5.676;2022-09-23T05:53:53;101623.63;;;15.50;83.78
71638;BME280;59485;43.542;-5.676;2022-09-23T05:56:21;101619.16;;;15.49;83.77
71638;BME280;59485;43.542;-5.676;2022-09-23T05:58:49;101626.19;;;15.51;83.77
71638;BME280;59485;43.542;-5.676;2022-09-23T06:01:17;101624.69;;;15.49;83.81
71638;BME280;59485;43.542;-5.676;2022-09-23T06:03:49;101623.63;;;15.50;83.72
71638;BME280;59485;43.542;-5.676;2022-09-23T06:06:16;101620.84;;;15.50;83.78
71638;BME280;59485;43.542;-5.676;2022-09-23T06:08:43;101619.25;;;15.55;83.75
71638;BME280;59485;43.542;-5.676;2022-09-23T06:11:09;101615.88;;;15.60;84.00
71638;BME280;59485;43.542;-5.676;2022-09-23T06:13:37;101600.13;;;15.60;83.98
71638;BME280;59485;43.542;-5.676;2022-09-23T06:16:11;101601.38;;;15.58;83.75
71638;BME280;59485;43.542;-5.676;2022-09-23T06:18:39;101621.22;;;15.68;83.67
71638;BME280;59485;43.542;-5.676;2022-09-23T06:21:05;101612.69;;;15.63;83.64
71638;BME280;59485;43.542;-5.676;2022-09-23T06:23:32;101624.66;;;15.70;83.57
71638;BME280;59485;43.542;-5.676;2022-09-23T06:26:01;101622.53;;;15.72;83.66
71638;BME280;59485;43.542;-5.676;2022-09-23T06:28:30;101617.41;;;15.69;83.55
71638;BME280;59485;43.542;-5.676;2022-09-23T06:31:01;101606.75;;;15.66;83.65
71638;BME280;59485;43.542;-5.676;2022-09-23T06:33:28;101599.94;;;15.62;83.61
71638;BME280;59485;43.542;-5.676;2022-09-23T06:36:02;101606.34;;;15.69;83.58
71638;BME280;59485;43.542;-5.676;2022-09-23T06:38:31;101622.75;;;15.70;83.65
71638;BME280;59485;43.542;-5.676;2022-09-23T06:40:58;101632.09;;;15.69;83.58
71638;BME280;59485;43.542;-5.676;2022-09-23T06:43:25;101637.63;;;15.69;83.74
71638;BME280;59485;43.542;-5.676;2022-09-23T06:45:55;101635.50;;;15.71;83.72
71638;BME280;59485;43.542;-5.676;2022-09-23T06:48:22;101640.22;;;15.77;83.90
71638;BME280;59485;43.542;-5.676;2022-09-23T06:50:52;101639.34;;;15.77;83.63
71638;BME280;59485;43.542;-5.676;2022-09-23T06:53:20;101649.41;;;15.85;83.42
71638;BME280;59485;43.542;-5.676;2022-09-23T06:56:06;101646.88;;;15.83;82.98
71638;BME280;59485;43.542;-5.676;2022-09-23T06:58:34;101658.16;;;15.88;83.37
71638;BME280;59485;43.542;-5.676;2022-09-23T07:01:04;101655.84;;;15.92;83.50
71638;BME280;59485;43.542;-5.676;2022-09-23T07:03:31;101658.19;;;15.95;83.43
71638;BME280;59485;43.542;-5.676;2022-09-23T07:05:58;101655.22;;;15.96;83.26
71638;BME280;59485;43.542;-5.676;2022-09-23T07:08:24;101652.06;;;15.99;83.27
71638;BME280;59485;43.542;-5.676;2022-09-23T07:10:56;101647.38;;;16.00;83.38
71638;BME280;59485;43.542;-5.676;2022-09-23T07:13:23;101641.00;;;16.06;83.47
71638;BME280;59485;43.542;-5.676;2022-09-23T07:15:49;101638.66;;;16.03;83.30
71638;BME280;59485;43.542;-5.676;2022-09-23T07:18:16;101625.06;;;16.01;83.42
71638;BME280;59485;43.542;-5.676;2022-09-23T07:20:42;101624.88;;;16.09;83.30
71638;BME280;59485;43.542;-5.676;2022-09-23T07:23:07;101616.56;;;16.09;83.54
71638;BME280;59485;43.542;-5.676;2022-09-23T07:25:32;101622.53;;;16.20;83.47
71638;BME280;59485;43.542;-5.676;2022-09-23T07:27:58;101625.78;;;16.23;83.43
71638;BME280;59485;43.542;-5.676;2022-09-23T07:30:25;101620.69;;;16.33;82.74
71638;BME280;59485;43.542;-5.676;2022-09-23T07:32:51;101617.94;;;16.40;82.68
71638;BME280;59485;43.542;-5.676;2022-09-23T07:35:17;101619.91;;;16.46;82.19
71638;BME280;59485;43.542;-5.676;2022-09-23T07:37:43;101614.38;;;16.52;82.16
71638;BME280;59485;43.542;-5.676;2022-09-23T07:40:09;101625.47;;;16.59;82.01
71638;BME280;59485;43.542;-5.676;2022-09-23T07:42:34;101640.84;;;16.62;81.53
71638;BME280;59485;43.542;-5.676;2022-09-23T07:45:00;101658.72;;;16.66;81.39
71638;BME280;59485;43.542;-5.676;2022-09-23T07:47:26;101665.13;;;16.66;81.47
71638;BME280;59485;43.542;-5.676;2022-09-23T07:49:51;101665.97;;;16.67;81.26
71638;BME280;59485;43.542;-5.676;2022-09-23T07:52:18;101683.84;;;16.64;80.90
71638;BME280;59485;43.542;-5.676;2022-09-23T07:54:46;101691.25;;;16.57;80.97
71638;BME280;59485;43.542;-5.676;2022-09-23T07:57:12;101697.81;;;16.49;81.38
71638;BME280;59485;43.542;-5.676;2022-09-23T07:59:37;101707.81;;;16.44;81.37
71638;BME280;59485;43.542;-5.676;2022-09-23T08:02:05;101713.34;;;16.44;81.49
71638;BME280;59485;43.542;-5.676;2022-09-23T08:04:31;101715.69;;;16.47;81.51
71638;BME280;59485;43.542;-5.676;2022-09-23T08:07:03;101711.47;;;16.58;81.29
71638;BME280;59485;43.542;-5.676;2022-09-23T08:09:32;101719.34;;;16.54;81.41
71638;BME280;59485;43.542;-5.676;2022-09-23T08:11:58;101706.59;;;16.60;81.45
71638;BME280;59485;43.542;-5.676;2022-09-23T08:14:24;101712.38;;;16.65;81.15
71638;BME280;59485;43.542;-5.676;2022-09-23T08:16:50;101706.03;;;16.71;81.07
71638;BME280;59485;43.542;-5.676;2022-09-23T08:19:16;101713.69;;;16.75;80.39
71638;BME280;59485;43.542;-5.676;2022-09-23T08:21:43;101709.22;;;16.74;80.27
71638;BME280;59485;43.542;-5.676;2022-09-23T08:24:16;101709.47;;;16.79;79.59
71638;BME280;59485;43.542;-5.676;2022-09-23T08:26:43;101703.75;;;16.87;79.38
71638;BME280;59485;43.542;-5.676;2022-09-23T08:29:12;101702.88;;;16.94;79.20
71638;BME280;59485;43.542;-5.676;2022-09-23T08:31:38;101703.13;;;16.99;79.14
71638;BME280;59485;43.542;-5.676;2022-09-23T08:34:03;101708.88;;;17.04;79.13
71638;BME280;59485;43.542;-5.676;2022-09-23T08:36:30;101701.00;;;17.07;79.00
71638;BME280;59485;43.542;-5.676;2022-09-23T08:38:56;101709.13;;;17.15;78.85
71638;BME280;59485;43.542;-5.676;2022-09-23T08:44:10;101710.84;;;17.30;78.86
71638;BME280;59485;43.542;-5.676;2022-09-23T08:46:45;101714.25;;;17.38;78.75
71638;BME280;59485;43.542;-5.676;2022-09-23T08:49:18;101709.16;;;17.42;78.63
71638;BME280;59485;43.542;-5.676;2022-09-23T08:51:48;101712.78;;;17.49;78.06
71638;BME280;59485;43.542;-5.676;2022-09-23T08:54:15;101708.72;;;17.51;78.03
71638;BME280;59485;43.542;-5.676;2022-09-23T08:56:44;101714.91;;;17.60;77.80
71638;BME280;59485;43.542;-5.676;2022-09-23T09:01:48;101731.56;;;17.73;77.47
71638;BME280;59485;43.542;-5.676;2022-09-23T09:09:59;101705.94;;;17.91;76.87
71638;BME280;59485;43.542;-5.676;2022-09-23T09:17:43;101723.19;;;18.13;75.79
71638;BME280;59485;43.542;-5.676;2022-09-23T09:20:27;101725.06;;;18.25;75.74
71638;BME280;59485;43.542;-5.676;2022-09-23T09:22:58;101721.88;;;18.28;74.89
71638;BME280;59485;43.542;-5.676;2022-09-23T09:27:54;101744.44;;;18.52;74.33
71638;BME280;59485;43.542;-5.676;2022-09-23T09:30:20;101752.56;;;18.60;73.75
71638;BME280;59485;43.542;-5.676;2022-09-23T09:32:57;101751.66;;;18.66;73.97
71638;BME280;59485;43.542;-5.676;2022-09-23T09:38:01;101745.22;;;18.79;73.19
71638;BME280;59485;43.542;-5.676;2022-09-23T09:40:28;101734.09;;;18.79;73.49
71638;BME280;59485;43.542;-5.676;2022-09-23T09:42:54;101735.31;;;18.89;73.21
71638;BME280;59485;43.542;-5.676;2022-09-23T09:48:27;101740.38;;;19.05;72.64
71638;BME280;59485;43.542;-5.676;2022-09-23T09:51:15;101745.84;;;19.19;73.17
71638;BME280;59485;43.542;-5.676;2022-09-23T09:53:43;101742.41;;;19.23;72.67
71638;BME280;59485;43.542;-5.676;2022-09-23T09:56:12;101749.63;;;19.31;72.76
71638;BME280;59485;43.542;-5.676;2022-09-23T09:58:53;101749.34;;;19.39;72.62
71638;BME280;59485;43.542;-5.676;2022-09-23T10:01:25;101743.09;;;19.43;72.28
71638;BME280;59485;43.542;-5.676;2022-09-23T10:03:54;101741.13;;;19.51;72.19
71638;BME280;59485;43.542;-5.676;2022-09-23T10:11:29;101739.47;;;19.74;71.56
71638;BME280;59485;43.542;-5.676;2022-09-23T10:16:25;101735.94;;;19.85;71.56
71638;BME280;59485;43.542;-5.676;2022-09-23T10:18:51;101734.84;;;19.86;71.01
71638;BME280;59485;43.542;-5.676;2022-09-23T10:21:22;101725.72;;;19.79;71.71
71638;BME280;59485;43.542;-5.676;2022-09-23T10:23:54;101738.88;;;19.91;71.49
71638;BME280;59485;43.542;-5.676;2022-09-23T10:26:32;101739.19;;;19.82;71.84
71638;BME280;59485;43.542;-5.676;2022-09-23T10:29:09;101740.66;;;19.85;72.45
71638;BME280;59485;43.542;-5.676;2022-09-23T10:31:44;101728.78;;;19.71;74.06
71638;BME280;59485;43.542;-5.676;2022-09-23T10:34:26;101737.31;;;19.76;73.87
71638;BME280;59485;43.542;-5.676;2022-09-23T10:37:01;101742.75;;;19.90;73.08
71638;BME280;59485;43.542;-5.676;2022-09-23T10:39:27;101740.53;;;19.73;73.99
71638;BME280;59485;43.542;-5.676;2022-09-23T10:45:39;101729.41;;;19.73;73.86
71638;BME280;59485;43.542;-5.676;2022-09-23T10:48:34;101736.25;;;19.96;73.13
71638;BME280;59485;43.542;-5.676;2022-09-23T10:56:18;101738.66;;;20.35;72.31
71638;BME280;59485;43.542;-5.676;2022-09-23T11:10:12;101739.91;;;20.57;70.81
71638;BME280;59485;43.542;-5.676;2022-09-23T11:15:28;101724.00;;;20.76;70.82
71638;BME280;59485;43.542;-5.676;2022-09-23T11:29:04;101737.31;;;20.92;69.62
71638;BME280;59485;43.542;-5.676;2022-09-23T11:37:25;101709.25;;;20.76;69.80
71638;BME280;59485;43.542;-5.676;2022-09-23T11:40:04;101715.28;;;20.73;70.47
71638;BME280;59485;43.542;-5.676;2022-09-23T11:42:38;101708.78;;;20.60;70.01
71638;BME280;59485;43.542;-5.676;2022-09-23T11:45:11;101712.31;;;20.68;70.63
71638;BME280;59485;43.542;-5.676;2022-09-23T11:47:47;101703.75;;;20.69;70.29
71638;BME280;59485;43.542;-5.676;2022-09-23T11:50:19;101708.47;;;20.69;69.68
71638;BME280;59485;43.542;-5.676;2022-09-23T11:53:14;101702.13;;;20.62;70.58
71638;BME280;59485;43.542;-5.676;2022-09-23T11:55:46;101712.50;;;20.54;70.70
71638;BME280;59485;43.542;-5.676;2022-09-23T11:58:18;101710.72;;;20.60;71.33
71638;BME280;59485;43.542;-5.676;2022-09-23T12:00:57;101698.41;;;20.68;71.04
71638;BME280;59485;43.542;-5.676;2022-09-23T12:06:14;101706.19;;;20.77;70.75
71638;BME280;59485;43.542;-5.676;2022-09-23T12:08:43;101707.44;;;20.81;70.69
71638;BME280;59485;43.542;-5.676;2022-09-23T12:11:28;101696.22;;;20.70;70.74
71638;BME280;59485;43.542;-5.676;2022-09-23T12:27:10;101696.00;;;20.71;70.55
71638;BME280;59485;43.542;-5.676;2022-09-23T12:29:40;101693.44;;;20.70;70.10
71638;BME280;59485;43.542;-5.676;2022-09-23T12:32:06;101687.22;;;20.86;70.58
71638;BME280;59485;43.542;-5.676;2022-09-23T12:34:46;101691.28;;;20.72;70.17
71638;BME280;59485;43.542;-5.676;2022-09-23T12:37:24;101694.06;;;20.72;70.62
71638;BME280;59485;43.542;-5.676;2022-09-23T12:39:50;101688.44;;;20.60;70.43
71638;BME280;59485;43.542;-5.676;2022-09-23T12:42:18;101701.38;;;20.54;70.65
71638;BME280;59485;43.542;-5.676;2022-09-23T12:44:46;101695.69;;;20.61;70.99
71638;BME280;59485;43.542;-5.676;2022-09-23T12:49:53;101687.53;;;20.48;71.47
71638;BME280;59485;43.542;-5.676;2022-09-23T12:54:45;101688.94;;;20.39;72.13
71638;BME280;59485;43.542;-5.676;2022-09-23T13:03:01;101681.56;;;20.44;71.65
71638;BME280;59485;43.542;-5.676;2022-09-23T13:05:57;101667.69;;;20.01;72.66
71638;BME280;59485;43.542;-5.676;2022-09-23T13:08:44;101655.72;;;20.01;72.93
71638;BME280;59485;43.542;-5.676;2022-09-23T13:11:30;101664.38;;;20.11;72.55
71638;BME280;59485;43.542;-5.676;2022-09-23T13:13:59;101645.44;;;20.01;73.16
71638;BME280;59485;43.542;-5.676;2022-09-23T13:16:40;101651.31;;;20.11;72.68
71638;BME280;59485;43.542;-5.676;2022-09-23T13:29:38;101656.34;;;20.21;71.83
71638;BME280;59485;43.542;-5.676;2022-09-23T13:32:16;101651.22;;;20.18;71.51
71638;BME280;59485;43.542;-5.676;2022-09-23T13:34:45;101652.84;;;20.26;71.60
71638;BME280;59485;43.542;-5.676;2022-09-23T13:37:19;101660.84;;;20.22;71.34
71638;BME280;59485;43.542;-5.676;2022-09-23T13:39:45;101661.94;;;20.39;71.50
71638;BME280;59485;43.542;-5.676;2022-09-23T13:42:37;101670.00;;;20.22;71.93
71638;BME280;59485;43.542;-5.676;2022-09-23T13:45:05;101668.88;;;20.30;72.25
71638;BME280;59485;43.542;-5.676;2022-09-23T13:47:41;101659.13;;;20.21;72.37
71638;BME280;59485;43.542;-5.676;2022-09-23T13:50:14;101653.38;;;20.16;71.53
71638;BME280;59485;43.542;-5.676;2022-09-23T13:52:40;101657.56;;;20.43;69.87
71638;BME280;59485;43.542;-5.676;2022-09-23T13:55:26;101652.19;;;20.48;69.19
71638;BME280;59485;43.542;-5.676;2022-09-23T14:00:33;101640.88;;;21.15;67.64
71638;BME280;59485;43.542;-5.676;2022-09-23T14:03:01;101642.66;;;21.39;65.89
71638;BME280;59485;43.542;-5.676;2022-09-23T14:05:32;101631.47;;;21.39;66.27
71638;BME280;59485;43.542;-5.676;2022-09-23T14:07:58;101645.44;;;21.51;65.93
71638;BME280;59485;43.542;-5.676;2022-09-23T14:10:25;101646.16;;;21.34;64.56
71638;BME280;59485;43.542;-5.676;2022-09-23T14:12:53;101640.72;;;20.98;66.90
71638;BME280;59485;43.542;-5.676;2022-09-23T14:15:20;101647.16;;;20.69;68.21
71638;BME280;59485;43.542;-5.676;2022-09-23T14:17:52;101650.78;;;20.39;70.12
71638;BME280;59485;43.542;-5.676;2022-09-23T14:20:20;101651.88;;;20.38;70.69
71638;BME280;59485;43.542;-5.676;2022-09-23T14:22:46;101650.16;;;20.37;71.12
71638;BME280;59485;43.542;-5.676;2022-09-23T14:25:14;101656.72;;;20.24;71.98
71638;BME280;59485;43.542;-5.676;2022-09-23T14:27:41;101656.94;;;20.23;72.50
71638;BME280;59485;43.542;-5.676;2022-09-23T14:30:15;101657.25;;;20.15;72.44
71638;BME280;59485;43.542;-5.676;2022-09-23T14:32:43;101655.41;;;20.09;73.20
71638;BME280;59485;43.542;-5.676;2022-09-23T14:35:22;101648.97;;;20.08;72.98
71638;BME280;59485;43.542;-5.676;2022-09-23T14:37:55;101655.41;;;20.27;72.67
71638;BME280;59485;43.542;-5.676;2022-09-23T14:40:54;101658.19;;;20.45;72.07
71638;BME280;59485;43.542;-5.676;2022-09-23T14:43:46;101656.19;;;20.52;71.69
71638;BME280;59485;43.542;-5.676;2022-09-23T14:46:19;101656.50;;;20.44;71.81
71638;BME280;59485;43.542;-5.676;2022-09-23T14:49:04;101650.41;;;20.36;72.17
71638;BME280;59485;43.542;-5.676;2022-09-23T14:51:55;101646.84;;;20.47;71.71
71638;BME280;59485;43.542;-5.676;2022-09-23T14:54:30;101644.28;;;20.45;71.85
71638;BME280;59485;43.542;-5.676;2022-09-23T14:57:00;101657.75;;;20.48;71.99
71638;BME280;59485;43.542;-5.676;2022-09-23T14:59:34;101649.13;;;20.32;72.88
71638;BME280;59485;43.542;-5.676;2022-09-23T15:02:00;101642.03;;;20.36;72.06
71638;BME280;59485;43.542;-5.676;2022-09-23T15:04:29;101645.19;;;20.57;71.50
71638;BME280;59485;43.542;-5.676;2022-09-23T15:07:27;101656.50;;;20.44;70.97
71638;BME280;59485;43.542;-5.676;2022-09-23T15:09:53;101654.81;;;20.73;70.07
71638;BME280;59485;43.542;-5.676;2022-09-23T15:12:20;101648.91;;;20.81;69.25
71638;BME280;59485;43.542;-5.676;2022-09-23T15:14:53;101648.41;;;20.73;68.80
71638;BME280;59485;43.542;-5.676;2022-09-23T15:17:33;101653.63;;;20.51;70.08
71638;BME280;59485;43.542;-5.676;2022-09-23T15:20:04;101658.50;;;20.55;70.02
71638;BME280;59485;43.542;-5.676;2022-09-23T15:22:49;101658.69;;;20.72;69.46
71638;BME280;59485;43.542;-5.676;2022-09-23T15:30:30;101651.50;;;20.94;67.86
71638;BME280;59485;43.542;-5.676;2022-09-23T15:32:59;101651.25;;;20.96;67.00
71638;BME280;59485;43.542;-5.676;2022-09-23T15:35:25;101651.28;;;21.38;64.83
71638;BME280;59485;43.542;-5.676;2022-09-23T15:37:54;101648.22;;;21.39;65.82
71638;BME280;59485;43.542;-5.676;2022-09-23T15:40:27;101655.03;;;21.43;64.17
71638;BME280;59485;43.542;-5.676;2022-09-23T15:42:56;101660.75;;;21.60;62.67
71638;BME280;59485;43.542;-5.676;2022-09-23T15:47:59;101645.91;;;22.69;56.85